Time;durP1;ratioP1;P1;durP2;ratioP2;P2;SDS_P1;SDS_P2;PMS_P1;PMS_P2;Temp;Humidity;BMP_temperature;BMP_pressure;BME280_temperature;BME280_humidity;BME280_pressure;Samples;Min_cycle;Max_cycle;Signal;HPM_P1;HPM_P2
2023/04/14 00:00:07;;;;;;;10.93;7.03;;;4.70;99.90;;;;;;4958759;28;20462;-75
2023/04/14 00:02:35;;;;;;;13.60;7.53;;;4.70;99.90;;;;;;4959045;28;20517;-76
2023/04/14 00:05:03;;;;;;;11.70;7.60;;;4.70;99.90;;;;;;4951262;28;20882;-75
2023/04/14 00:07:29;;;;;;;9.00;7.50;;;4.70;99.90;;;;;;4966923;28;20560;-76
2023/04/14 00:09:57;;;;;;;14.07;8.10;;;4.80;99.90;;;;;;4951060;28;20461;-75
2023/04/14 00:12:24;;;;;;;14.67;8.50;;;4.80;99.90;;;;;;4951483;28;20482;-75
2023/04/14 00:14:50;;;;;;;11.50;7.80;;;4.70;99.90;;;;;;4954470;28;20462;-75
2023/04/14 00:17:17;;;;;;;9.80;6.13;;;4.70;99.90;;;;;;4967382;28;20511;-75
2023/04/14 00:19:44;;;;;;;8.97;5.80;;;4.70;99.90;;;;;;4951054;28;20468;-75
2023/04/14 00:22:10;;;;;;;8.53;5.60;;;4.60;99.90;;;;;;4951078;28;21049;-75
2023/04/14 00:24:41;;;;;;;10.33;5.60;;;4.60;99.90;;;;;;4955417;28;20550;-75
2023/04/14 00:27:10;;;;;;;12.87;6.07;;;4.60;99.90;;;;;;4958399;28;20928;-75
2023/04/14 00:29:37;;;;;;;15.33;5.13;;;4.50;99.90;;;;;;4951241;28;20524;-77
2023/04/14 00:32:04;;;;;;;10.00;5.20;;;4.50;99.90;;;;;;4950882;28;20861;-75
2023/04/14 00:34:31;;;;;;;6.73;4.80;;;4.50;99.90;;;;;;4951618;28;20876;-76
2023/04/14 00:36:57;;;;;;;9.30;5.63;;;4.50;99.90;;;;;;4955543;28;20466;-75
2023/04/14 00:39:24;;;;;;;9.40;5.50;;;4.50;99.90;;;;;;4957173;28;20469;-75
2023/04/14 00:41:51;;;;;;;9.93;4.53;;;4.50;99.90;;;;;;4969216;28;20565;-75
2023/04/14 00:44:19;;;;;;;8.50;4.00;;;4.50;99.90;;;;;;4961338;28;21222;-75
2023/04/14 00:46:46;;;;;;;5.80;4.50;;;4.40;99.90;;;;;;4958618;28;20949;-75
2023/04/14 00:49:12;;;;;;;11.03;5.50;;;4.30;99.90;;;;;;4950988;28;20459;-75
2023/04/14 00:51:39;;;;;;;7.40;4.70;;;4.30;99.90;;;;;;4955185;28;20539;-75
2023/04/14 00:54:07;;;;;;;7.97;4.50;;;4.20;99.90;;;;;;4958701;28;20511;-75
2023/04/14 00:56:34;;;;;;;9.60;5.17;;;4.20;99.90;;;;;;4957505;28;20469;-76
2023/04/14 00:59:03;;;;;;;10.80;6.97;;;4.20;99.90;;;;;;4959676;28;20533;-75
2023/04/14 01:01:32;;;;;;;10.80;6.13;;;4.10;99.90;;;;;;4958311;28;20485;-76
2023/04/14 01:03:59;;;;;;;13.30;5.87;;;4.10;99.90;;;;;;4950534;28;20614;-76
2023/04/14 01:06:26;;;;;;;10.37;5.53;;;4.00;99.90;;;;;;4950751;28;20503;-75
2023/04/14 01:08:54;;;;;;;5.93;5.00;;;4.10;99.90;;;;;;4964056;28;20468;-76
2023/04/14 01:11:31;;;;;;;9.20;6.10;;;4.00;99.90;;;;;;4952693;28;20542;-75
2023/04/14 01:14:07;;;;;;;13.33;5.90;;;4.00;99.90;;;;;;4955548;28;20468;-75
2023/04/14 01:16:38;;;;;;;9.73;5.00;;;4.00;99.90;;;;;;4958065;28;20880;-76
2023/04/14 01:19:28;;;;;;;7.13;5.00;;;4.00;99.90;;;;;;4950339;28;20816;-77
2023/04/14 01:21:57;;;;;;;7.40;5.13;;;4.00;99.90;;;;;;4954901;28;20544;-75
2023/04/14 01:24:40;;;;;;;9.20;6.57;;;4.00;99.90;;;;;;4952485;28;20557;-75
2023/04/14 01:27:21;;;;;;;12.90;8.27;;;3.90;99.90;;;;;;4957050;28;20457;-75
2023/04/14 01:30:00;;;;;;;13.10;8.57;;;3.90;99.90;;;;;;4951698;28;20955;-77
2023/04/14 01:32:33;;;;;;;13.40;8.10;;;3.90;99.90;;;;;;4974566;28;20555;-75
2023/04/14 01:35:08;;;;;;;11.83;8.20;;;3.80;99.90;;;;;;4952823;28;20460;-76
2023/04/14 01:37:38;;;;;;;14.07;7.37;;;3.80;99.90;;;;;;4967676;28;20454;-76
2023/04/14 01:40:12;;;;;;;11.20;7.70;;;3.70;99.90;;;;;;4959274;28;20510;-76
2023/04/14 01:42:45;;;;;;;9.47;7.20;;;3.70;99.90;;;;;;4961238;28;20491;-75
2023/04/14 01:45:16;;;;;;;12.23;7.50;;;3.70;99.90;;;;;;4949964;28;20502;-75
2023/04/14 01:47:46;;;;;;;10.40;7.20;;;3.70;99.90;;;;;;4949661;28;20457;-75
2023/04/14 01:50:15;;;;;;;12.90;6.93;;;3.70;99.90;;;;;;4956159;28;20464;-76
2023/04/14 01:52:46;;;;;;;14.10;6.57;;;3.60;99.90;;;;;;4960007;28;20484;-75
2023/04/14 01:55:15;;;;;;;7.80;5.53;;;3.60;99.90;;;;;;4956589;28;20559;-77
2023/04/14 01:57:43;;;;;;;7.73;4.83;;;3.50;99.90;;;;;;4958483;28;20876;-75
2023/04/14 02:00:12;;;;;;;9.07;4.80;;;3.50;99.90;;;;;;4949722;28;20452;-75
2023/04/14 02:02:41;;;;;;;7.83;5.03;;;3.50;99.90;;;;;;4949806;28;20562;-76
2023/04/14 02:05:10;;;;;;;11.33;4.80;;;3.40;99.90;;;;;;4949486;28;20557;-75
2023/04/14 02:07:38;;;;;;;6.67;4.33;;;3.40;99.90;;;;;;4954658;28;21015;-77
2023/04/14 02:10:07;;;;;;;6.90;3.60;;;3.40;99.90;;;;;;4954594;28;20510;-75
2023/04/14 02:12:36;;;;;;;6.57;3.60;;;3.40;99.90;;;;;;4959660;28;20535;-75
2023/04/14 02:15:03;;;;;;;6.07;3.20;;;3.40;99.90;;;;;;4964835;28;20525;-75
2023/04/14 02:17:31;;;;;;;13.13;4.40;;;3.40;99.90;;;;;;4961845;28;20458;-76
2023/04/14 02:19:59;;;;;;;8.20;3.70;;;3.40;99.90;;;;;;4955738;28;20941;-75
2023/04/14 02:22:27;;;;;;;8.53;4.07;;;3.40;99.90;;;;;;4949614;28;20527;-75
2023/04/14 02:24:54;;;;;;;7.80;4.03;;;3.30;99.90;;;;;;4952216;28;20546;-75
2023/04/14 02:27:32;;;;;;;7.80;5.57;;;3.30;99.90;;;;;;4957433;28;20486;-76
2023/04/14 02:30:03;;;;;;;13.97;6.70;;;3.30;99.90;;;;;;4957530;28;20505;-75
2023/04/14 02:32:31;;;;;;;15.00;5.60;;;3.30;99.90;;;;;;4970474;28;20562;-75
2023/04/14 02:35:03;;;;;;;8.27;4.80;;;3.20;99.90;;;;;;4951103;28;20511;-75
2023/04/14 02:37:37;;;;;;;10.63;5.70;;;3.20;99.90;;;;;;4957391;28;20463;-75
2023/04/14 02:40:16;;;;;;;9.37;5.60;;;3.20;99.90;;;;;;4964661;28;20460;-76
2023/04/14 02:42:46;;;;;;;9.90;6.67;;;3.20;99.90;;;;;;4963354;28;20470;-75
2023/04/14 02:45:18;;;;;;;12.10;6.00;;;3.20;99.90;;;;;;4958174;28;20986;-76
2023/04/14 02:47:50;;;;;;;27.87;6.27;;;3.20;99.90;;;;;;4953965;28;20460;-75
2023/04/14 02:50:19;;;;;;;10.30;5.77;;;3.20;99.90;;;;;;4953689;28;20455;-75
2023/04/14 02:52:50;;;;;;;13.97;6.27;;;3.10;99.90;;;;;;4949125;28;20479;-75
2023/04/14 02:55:18;;;;;;;11.57;6.17;;;3.10;99.90;;;;;;4952999;28;20464;-75
2023/04/14 02:57:46;;;;;;;11.80;6.60;;;3.10;99.90;;;;;;4967251;28;20471;-75
2023/04/14 03:00:14;;;;;;;11.70;7.20;;;3.00;99.90;;;;;;4961310;28;20461;-75
2023/04/14 03:02:43;;;;;;;13.87;7.50;;;3.00;99.90;;;;;;4956199;28;20566;-75
2023/04/14 03:05:11;;;;;;;11.27;7.37;;;2.90;99.90;;;;;;4960052;28;20569;-75
2023/04/14 03:07:38;;;;;;;13.23;8.03;;;2.90;99.90;;;;;;4951945;28;20463;-75
2023/04/14 03:10:10;;;;;;;16.40;7.27;;;2.80;99.90;;;;;;4952148;28;20902;-75
2023/04/14 03:12:37;;;;;;;11.40;6.90;;;2.80;99.90;;;;;;4964044;28;20481;-76
2023/04/14 03:15:07;;;;;;;7.70;6.23;;;2.70;99.90;;;;;;4960051;28;20501;-75
2023/04/14 03:17:35;;;;;;;7.93;6.30;;;2.70;99.90;;;;;;4953357;28;20465;-76
2023/04/14 03:20:02;;;;;;;9.73;7.10;;;2.70;99.90;;;;;;4963187;28;20479;-75
2023/04/14 03:22:29;;;;;;;10.60;6.67;;;2.70;99.90;;;;;;4959307;28;20480;-75
2023/04/14 03:24:57;;;;;;;15.33;8.00;;;2.60;99.90;;;;;;4953402;28;21057;-75
2023/04/14 03:27:28;;;;;;;8.57;6.97;;;2.60;99.90;;;;;;4959877;28;20939;-76
2023/04/14 03:30:00;;;;;;;15.13;7.70;;;2.60;99.90;;;;;;4958770;28;20891;-75
2023/04/14 03:32:34;;;;;;;11.13;7.30;;;2.60;99.90;;;;;;4967185;28;20482;-76
2023/04/14 03:35:03;;;;;;;12.23;7.53;;;2.60;99.90;;;;;;4959852;28;20504;-75
2023/04/14 03:37:32;;;;;;;12.53;7.80;;;2.60;99.90;;;;;;4959389;28;20554;-76
2023/04/14 03:40:04;;;;;;;13.63;8.27;;;2.60;99.90;;;;;;4951708;28;20962;-75
2023/04/14 03:42:34;;;;;;;13.10;6.50;;;2.60;99.90;;;;;;4951657;28;20475;-75
2023/04/14 03:45:02;;;;;;;10.80;7.13;;;2.60;99.90;;;;;;4959467;28;20521;-75
2023/04/14 03:47:30;;;;;;;9.47;6.67;;;2.70;99.90;;;;;;4954417;28;20521;-75
2023/04/14 03:50:00;;;;;;;14.53;8.60;;;2.60;99.90;;;;;;4954234;28;20535;-76
2023/04/14 03:52:31;;;;;;;8.93;5.83;;;2.60;99.90;;;;;;4963275;28;20492;-75
2023/04/14 03:55:02;;;;;;;8.77;4.40;;;2.60;99.90;;;;;;4958366;28;21014;-75
2023/04/14 03:57:31;;;;;;;13.53;4.80;;;2.50;99.90;;;;;;4967504;28;20499;-76
2023/04/14 04:00:02;;;;;;;7.80;4.70;;;2.50;99.90;;;;;;4951717;28;20461;-76
2023/04/14 04:02:30;;;;;;;8.43;4.70;;;2.50;99.90;;;;;;4951828;28;20482;-76
2023/04/14 04:04:58;;;;;;;4.80;4.10;;;2.50;99.90;;;;;;4958417;28;20486;-75
2023/04/14 04:07:27;;;;;;;12.70;5.57;;;2.40;99.90;;;;;;4962126;28;20473;-75
2023/04/14 04:09:56;;;;;;;12.70;6.83;;;2.40;99.90;;;;;;4963223;28;20464;-77
2023/04/14 04:12:24;;;;;;;8.77;6.17;;;2.40;99.90;;;;;;4956647;28;20528;-76
2023/04/14 04:14:50;;;;;;;13.33;6.33;;;2.40;99.90;;;;;;4951010;28;20468;-75
2023/04/14 04:17:22;;;;;;;12.73;7.40;;;2.40;99.90;;;;;;4958012;28;20575;-77
2023/04/14 04:19:50;;;;;;;24.43;9.50;;;2.40;99.90;;;;;;4957470;28;20463;-75
2023/04/14 04:22:20;;;;;;;19.80;9.63;;;2.40;99.90;;;;;;4958744;28;20517;-76
2023/04/14 04:24:48;;;;;;;18.27;9.53;;;2.40;99.90;;;;;;4956227;28;20860;-77
2023/04/14 04:27:15;;;;;;;67.57;12.20;;;2.40;99.90;;;;;;4961834;28;20542;-75
2023/04/14 04:29:42;;;;;;;78.73;11.70;;;2.40;99.90;;;;;;4951994;28;20457;-75
2023/04/14 04:32:09;;;;;;;54.17;10.07;;;2.40;99.90;;;;;;4952809;28;20574;-76
2023/04/14 04:34:38;;;;;;;68.80;10.20;;;2.40;99.90;;;;;;4956816;28;20452;-75
2023/04/14 04:37:06;;;;;;;88.70;10.00;;;2.30;99.90;;;;;;4957049;28;20875;-77
2023/04/14 04:39:33;;;;;;;68.70;10.57;;;2.20;99.90;;;;;;4950757;28;20929;-75
2023/04/14 04:42:03;;;;;;;59.33;10.50;;;2.30;99.90;;;;;;4977103;28;20531;-76
2023/04/14 04:44:30;;;;;;;54.93;9.17;;;2.10;99.90;;;;;;4964414;28;20491;-77
2023/04/14 04:46:57;;;;;;;52.93;9.97;;;2.00;99.90;;;;;;4954539;28;20466;-75
2023/04/14 04:49:23;;;;;;;52.57;10.63;;;2.00;99.90;;;;;;4954826;28;20459;-76
2023/04/14 04:51:52;;;;;;;31.90;10.57;;;2.00;99.90;;;;;;4956207;28;20474;-75
2023/04/14 04:54:19;;;;;;;43.70;11.03;;;2.00;99.90;;;;;;4950797;28;20461;-75
2023/04/14 04:56:46;;;;;;;21.47;8.30;;;2.10;99.90;;;;;;4950339;28;20523;-75
2023/04/14 04:59:12;;;;;;;22.73;8.73;;;2.00;99.90;;;;;;4953575;28;20461;-76
2023/04/14 05:01:39;;;;;;;22.27;10.37;;;2.10;99.90;;;;;;4961184;28;20492;-75
2023/04/14 05:04:06;;;;;;;20.63;8.77;;;2.10;99.90;;;;;;4962288;28;20550;-76
2023/04/14 05:06:35;;;;;;;16.40;8.73;;;2.20;99.90;;;;;;4960465;28;20871;-77
2023/04/14 05:09:04;;;;;;;25.07;8.93;;;2.10;99.90;;;;;;4955117;28;20464;-75
2023/04/14 05:11:31;;;;;;;16.70;8.33;;;2.30;99.90;;;;;;4952696;28;20482;-78
2023/04/14 05:13:58;;;;;;;23.17;8.83;;;2.40;99.90;;;;;;4954743;28;20504;-77
2023/04/14 05:16:24;;;;;;;15.03;7.50;;;2.40;99.90;;;;;;4953763;28;20459;-76
2023/04/14 05:18:51;;;;;;;16.53;8.13;;;2.50;99.90;;;;;;4954093;28;20458;-78
2023/04/14 05:21:18;;;;;;;14.60;7.90;;;2.50;99.90;;;;;;4954428;28;20480;-77
2023/04/14 05:23:45;;;;;;;12.10;7.07;;;2.50;99.90;;;;;;4949237;28;20792;-77
2023/04/14 05:26:15;;;;;;;17.77;8.23;;;2.60;99.90;;;;;;4955460;28;20552;-77
2023/04/14 05:28:42;;;;;;;18.10;8.33;;;2.70;99.90;;;;;;4952337;28;20515;-77
2023/04/14 05:31:09;;;;;;;9.77;6.17;;;2.80;99.90;;;;;;4953894;28;20906;-77
2023/04/14 05:33:36;;;;;;;18.40;7.40;;;3.10;99.90;;;;;;4974943;28;20469;-77
2023/04/14 05:36:02;;;;;;;26.53;8.00;;;3.30;99.90;;;;;;4953483;28;20498;-77
2023/04/14 05:38:29;;;;;;;198.67;12.87;;;3.20;99.90;;;;;;4952760;28;20460;-77
2023/04/14 05:40:56;;;;;;;185.70;14.53;;;3.10;99.90;;;;;;4986033;28;20913;-77
2023/04/14 05:43:24;;;;;;;58.90;10.67;;;2.90;99.90;;;;;;4954100;28;20508;-77
2023/04/14 05:45:50;;;;;;;73.83;10.20;;;2.80;99.90;;;;;;4949460;28;20503;-78
2023/04/14 05:48:17;;;;;;;50.70;9.20;;;2.80;99.90;;;;;;4949749;28;20516;-77
2023/04/14 05:50:44;;;;;;;57.70;9.33;;;2.80;99.90;;;;;;4950100;28;20459;-77
2023/04/14 05:53:11;;;;;;;44.43;8.50;;;3.00;99.90;;;;;;4951559;28;20464;-77
2023/04/14 05:55:40;;;;;;;17.73;8.27;;;3.10;99.90;;;;;;4949055;28;20456;-77
2023/04/14 05:58:06;;;;;;;29.60;8.00;;;3.30;99.90;;;;;;4950271;28;20828;-77
2023/04/14 06:00:34;;;;;;;15.40;7.33;;;3.60;99.90;;;;;;4957204;28;20883;-77
2023/04/14 06:03:01;;;;;;;10.30;6.73;;;4.10;99.90;;;;;;4952151;28;20490;-77
2023/04/14 06:05:28;;;;;;;10.43;6.57;;;4.60;99.90;;;;;;4964138;28;20915;-79
2023/04/14 06:07:54;;;;;;;9.33;6.33;;;5.20;99.90;;;;;;4963368;28;20939;-77
2023/04/14 06:10:21;;;;;;;8.57;5.40;;;5.70;99.90;;;;;;4949119;28;21056;-77
2023/04/14 06:12:48;;;;;;;6.80;5.00;;;6.10;99.90;;;;;;4949378;28;20553;-77
2023/04/14 06:15:14;;;;;;;7.03;5.27;;;6.40;99.90;;;;;;4949890;28;20514;-77
2023/04/14 06:17:46;;;;;;;7.23;5.80;;;6.80;99.90;;;;;;4955653;28;20535;-77
2023/04/14 06:20:13;;;;;;;7.83;5.47;;;7.10;99.90;;;;;;4949128;28;20457;-77
2023/04/14 06:22:39;;;;;;;5.00;4.30;;;7.30;99.90;;;;;;4960423;28;20471;-77
2023/04/14 06:25:06;;;;;;;5.97;4.33;;;7.60;99.90;;;;;;4977687;28;21199;-77
2023/04/14 06:27:33;;;;;;;5.90;4.60;;;7.90;99.90;;;;;;5023111;28;20539;-78
2023/04/14 06:30:00;;;;;;;6.77;5.60;;;8.20;99.90;;;;;;5019485;28;20460;-77
2023/04/14 06:32:26;;;;;;;8.40;5.87;;;8.20;99.90;;;;;;5017758;28;21297;-77
2023/04/14 06:34:54;;;;;;;10.80;6.90;;;8.20;99.90;;;;;;5021867;28;20450;-77
2023/04/14 06:37:21;;;;;;;7.30;6.43;;;8.30;99.90;;;;;;5025882;28;20456;-78
2023/04/14 06:39:48;;;;;;;10.27;7.43;;;8.30;99.90;;;;;;5027067;28;21156;-77
2023/04/14 06:42:14;;;;;;;7.13;5.80;;;8.20;99.90;;;;;;4984666;28;20551;-77
2023/04/14 06:44:41;;;;;;;9.57;6.27;;;8.10;99.90;;;;;;5024265;28;20464;-77
2023/04/14 06:47:08;;;;;;;8.13;6.30;;;7.80;99.90;;;;;;5022609;28;20450;-78
2023/04/14 06:49:36;;;;;;;8.20;6.40;;;7.70;99.90;;;;;;5024734;28;20936;-78
2023/04/14 06:52:05;;;;;;;10.80;7.00;;;7.90;99.90;;;;;;5022848;28;20569;-78
2023/04/14 06:54:33;;;;;;;12.77;8.47;;;7.90;99.90;;;;;;5024755;28;20534;-77
2023/04/14 06:57:01;;;;;;;15.33;8.80;;;8.10;99.90;;;;;;5025875;28;20458;-78
2023/04/14 06:59:28;;;;;;;9.07;6.67;;;8.40;99.90;;;;;;5023117;28;20467;-77
2023/04/14 07:01:57;;;;;;;6.97;5.97;;;8.70;99.90;;;;;;5021481;28;20491;-77
2023/04/14 07:04:24;;;;;;;6.60;5.70;;;9.10;99.90;;;;;;5034948;28;20457;-77
2023/04/14 07:06:51;;;;;;;7.97;5.83;;;9.30;99.90;;;;;;5012869;28;20500;-77
2023/04/14 07:09:20;;;;;;;9.63;6.07;;;9.60;99.90;;;;;;5028505;28;20462;-77
2023/04/14 07:11:46;;;;;;;8.30;5.43;;;9.80;99.90;;;;;;5017603;28;20525;-77
2023/04/14 07:14:13;;;;;;;10.70;6.43;;;10.00;99.90;;;;;;5023269;28;20491;-78
2023/04/14 07:16:40;;;;;;;7.47;5.60;;;10.10;99.90;;;;;;5023401;28;20448;-78
2023/04/14 07:19:07;;;;;;;12.30;5.67;;;10.30;99.90;;;;;;5022523;28;21143;-78
2023/04/14 07:21:34;;;;;;;7.37;5.67;;;10.10;99.90;;;;;;5022341;28;20509;-77
2023/04/14 07:24:00;;;;;;;9.77;5.50;;;10.30;99.90;;;;;;5022642;28;20484;-77
2023/04/14 07:26:28;;;;;;;6.57;5.37;;;10.60;99.90;;;;;;5020968;28;20901;-77
2023/04/14 07:28:55;;;;;;;7.20;5.47;;;10.80;99.90;;;;;;5016054;28;20460;-78
2023/04/14 07:31:22;;;;;;;8.33;5.77;;;11.00;99.90;;;;;;5015812;28;20584;-78
2023/04/14 07:33:49;;;;;;;6.07;5.40;;;11.20;99.90;;;;;;5016375;28;20460;-78
2023/04/14 07:36:16;;;;;;;12.40;5.83;;;11.20;99.90;;;;;;5022884;28;20498;-77
2023/04/14 07:38:42;;;;;;;9.07;7.37;;;11.30;99.90;;;;;;5026904;28;20460;-76
2023/04/14 07:41:09;;;;;;;9.10;6.70;;;11.00;99.90;;;;;;5028026;28;20475;-77
2023/04/14 07:43:38;;;;;;;10.07;7.57;;;10.70;99.90;;;;;;5023630;28;20498;-79
2023/04/14 07:46:07;;;;;;;10.13;7.07;;;10.20;99.90;;;;;;5025301;28;20555;-78
2023/04/14 07:48:34;;;;;;;10.60;7.87;;;9.80;99.90;;;;;;5024760;28;20464;-76
2023/04/14 07:51:01;;;;;;;10.20;7.23;;;9.80;99.90;;;;;;5025652;28;20988;-78
2023/04/14 07:53:28;;;;;;;9.90;6.80;;;9.90;99.90;;;;;;5024249;28;20499;-78
2023/04/14 07:55:55;;;;;;;9.50;7.17;;;10.20;99.90;;;;;;5028133;28;20448;-79
2023/04/14 07:58:21;;;;;;;8.47;6.90;;;10.40;99.90;;;;;;5028044;28;20452;-81
2023/04/14 08:00:50;;;;;;;12.80;7.30;;;10.60;99.90;;;;;;5024680;28;20452;-77
2023/04/14 08:03:17;;;;;;;10.60;6.90;;;10.90;99.90;;;;;;5021764;28;20456;-77
2023/04/14 08:05:43;;;;;;;13.80;8.20;;;11.40;99.90;;;;;;5021754;28;20469;-77
2023/04/14 08:08:11;;;;;;;10.00;6.53;;;11.80;99.90;;;;;;5017571;28;21054;-78
2023/04/14 08:10:40;;;;;;;12.63;5.60;;;12.40;99.90;;;;;;5023080;28;20947;-77
2023/04/14 08:13:06;;;;;;;11.40;6.23;;;12.50;99.90;;;;;;5024823;28;20871;-78
2023/04/14 08:15:33;;;;;;;8.07;5.60;;;12.60;99.90;;;;;;5019774;28;21249;-78
2023/04/14 08:18:02;;;;;;;7.37;4.53;;;12.80;99.90;;;;;;5022186;28;20513;-75
2023/04/14 08:20:29;;;;;;;6.07;4.57;;;13.20;99.90;;;;;;5023261;28;20444;-76
2023/04/14 08:22:56;;;;;;;8.03;5.50;;;13.30;99.90;;;;;;5025874;28;20532;-76
2023/04/14 08:25:23;;;;;;;6.00;4.60;;;13.50;99.90;;;;;;5024192;28;20467;-76
2023/04/14 08:27:50;;;;;;;10.77;4.90;;;13.70;99.90;;;;;;5019547;28;20464;-76
2023/04/14 08:30:17;;;;;;;9.57;4.77;;;13.80;99.90;;;;;;5025939;28;20506;-76
2023/04/14 08:32:44;;;;;;;10.50;4.97;;;14.10;99.90;;;;;;5021954;28;20499;-76
2023/04/14 08:35:12;;;;;;;7.57;4.60;;;14.30;99.90;;;;;;5020159;28;20448;-77
2023/04/14 08:37:38;;;;;;;10.70;4.40;;;14.60;99.90;;;;;;5020947;28;20452;-77
2023/04/14 08:40:10;;;;;;;6.53;4.10;;;14.90;99.90;;;;;;5016567;28;20917;-76
2023/04/14 08:42:36;;;;;;;8.47;4.10;;;15.20;99.90;;;;;;5024469;28;20447;-77
2023/04/14 08:45:03;;;;;;;8.00;4.10;;;15.30;99.90;;;;;;5021195;28;20517;-76
2023/04/14 08:47:31;;;;;;;8.40;3.40;;;15.20;99.90;;;;;;5026072;28;20484;-76
2023/04/14 08:50:02;;;;;;;7.30;4.10;;;15.00;99.90;;;;;;5024220;28;21243;-76
2023/04/14 08:52:32;;;;;;;9.43;3.70;;;15.00;99.90;;;;;;5024773;28;20484;-76
2023/04/14 08:55:01;;;;;;;8.53;3.67;;;15.10;99.90;;;;;;5023076;28;20505;-76
2023/04/14 08:57:30;;;;;;;6.93;3.47;;;15.20;99.90;;;;;;5022090;28;20579;-76
2023/04/14 08:59:57;;;;;;;8.83;3.80;;;15.30;99.90;;;;;;5021783;28;20460;-76
2023/04/14 09:02:25;;;;;;;6.40;3.60;;;15.40;99.90;;;;;;5023833;28;20478;-76
2023/04/14 09:04:53;;;;;;;7.57;3.53;;;15.40;99.90;;;;;;5022679;28;20526;-75
2023/04/14 09:07:20;;;;;;;8.43;3.73;;;15.50;99.90;;;;;;5025971;28;20491;-76
2023/04/14 09:09:48;;;;;;;7.27;3.90;;;15.90;99.90;;;;;;5022763;28;20466;-75
2023/04/14 09:12:16;;;;;;;6.67;3.90;;;15.80;99.90;;;;;;5022794;28;20902;-76
2023/04/14 09:14:44;;;;;;;10.33;3.30;;;15.90;99.90;;;;;;5023934;28;20467;-76
2023/04/14 09:17:11;;;;;;;8.43;3.70;;;16.00;99.90;;;;;;5025518;28;20966;-75
2023/04/14 09:19:38;;;;;;;9.63;3.40;;;15.90;99.90;;;;;;5022942;28;20447;-75
2023/04/14 09:22:05;;;;;;;5.53;3.37;;;16.00;99.90;;;;;;5012903;28;20503;-75
2023/04/14 09:24:33;;;;;;;9.90;4.07;;;16.30;99.90;;;;;;5024043;28;20468;-75
2023/04/14 09:27:03;;;;;;;9.93;4.03;;;16.50;99.90;;;;;;5015916;28;20450;-75
2023/04/14 09:29:30;;;;;;;10.50;3.83;;;16.80;99.90;;;;;;5024014;28;20444;-75
2023/04/14 09:31:57;;;;;;;8.63;3.87;;;16.90;99.90;;;;;;5021270;28;20475;-75
2023/04/14 09:34:24;;;;;;;9.93;4.43;;;16.80;99.90;;;;;;5022602;28;20522;-76
2023/04/14 09:37:01;;;;;;;12.23;4.90;;;16.60;99.90;;;;;;5021167;28;20435;-76
2023/04/14 09:39:28;;;;;;;18.23;5.60;;;15.90;99.90;;;;;;5022671;28;20539;-76
2023/04/14 09:41:54;;;;;;;6.40;4.43;;;15.60;99.90;;;;;;5020706;28;20484;-76
2023/04/14 09:44:23;;;;;;;13.93;4.93;;;16.00;99.90;;;;;;5025255;28;20460;-76
2023/04/14 09:46:57;;;;;;;9.20;4.97;;;16.40;99.90;;;;;;5019589;28;20524;-76
2023/04/14 09:49:23;;;;;;;8.97;5.30;;;16.90;99.90;;;;;;5016767;28;20469;-76
2023/04/14 09:51:52;;;;;;;10.83;5.03;;;17.00;99.90;;;;;;5019059;28;20450;-76
2023/04/14 09:54:24;;;;;;;8.40;5.50;;;17.20;99.90;;;;;;5022102;28;20427;-76
2023/04/14 09:56:51;;;;;;;12.50;5.80;;;17.10;99.90;;;;;;5019710;28;20427;-76
2023/04/14 09:59:32;;;;;;;13.20;6.10;;;17.30;99.90;;;;;;5025160;28;20427;-75
2023/04/14 10:02:00;;;;;;;9.93;6.40;;;17.20;99.90;;;;;;5021347;28;20443;-76
2023/04/14 10:04:27;;;;;;;13.90;6.07;;;17.40;99.90;;;;;;5021157;28;21197;-76
2023/04/14 10:06:56;;;;;;;10.33;6.33;;;17.80;99.90;;;;;;5021625;28;20560;-76
2023/04/14 10:09:25;;;;;;;12.97;6.40;;;17.70;99.90;;;;;;5022559;28;20976;-76
2023/04/14 10:12:07;;;;;;;6.73;6.00;;;17.40;99.90;;;;;;5018289;28;20462;-76
2023/04/14 10:14:36;;;;;;;13.37;7.27;;;17.10;99.90;;;;;;5022364;28;20480;-76
2023/04/14 10:17:02;;;;;;;10.83;5.77;;;17.00;99.90;;;;;;5021498;28;20446;-76
2023/04/14 10:19:29;;;;;;;11.80;6.13;;;17.10;99.90;;;;;;5024534;28;20496;-76
2023/04/14 10:21:57;;;;;;;12.77;5.80;;;16.90;99.90;;;;;;5021126;28;20451;-76
2023/04/14 10:24:24;;;;;;;10.50;4.90;;;16.80;99.90;;;;;;5021819;28;20458;-75
2023/04/14 10:26:51;;;;;;;5.50;4.03;;;17.00;99.90;;;;;;5018199;28;20458;-76
2023/04/14 10:29:18;;;;;;;9.53;4.00;;;17.40;99.90;;;;;;5024085;28;20496;-75
2023/04/14 10:31:51;;;;;;;6.77;4.00;;;17.40;99.90;;;;;;5023159;28;20472;-76
2023/04/14 10:34:19;;;;;;;9.20;4.40;;;17.00;99.90;;;;;;5023817;28;20435;-76
2023/04/14 10:36:47;;;;;;;5.90;3.63;;;16.50;99.90;;;;;;5021612;28;20419;-75
2023/04/14 10:39:21;;;;;;;9.50;4.43;;;16.70;99.90;;;;;;5023511;28;20456;-76
2023/04/14 10:41:49;;;;;;;12.80;4.97;;;16.70;99.90;;;;;;5019292;28;21361;-76
2023/04/14 10:44:23;;;;;;;7.77;3.87;;;16.70;99.90;;;;;;5024223;28;21660;-75
2023/04/14 10:46:52;;;;;;;11.37;5.30;;;16.50;99.90;;;;;;5019915;28;20522;-76
2023/04/14 10:49:23;;;;;;;7.13;4.57;;;16.60;99.90;;;;;;5023780;28;20446;-75
2023/04/14 10:51:50;;;;;;;11.70;5.00;;;16.70;99.90;;;;;;5022055;28;20504;-75
2023/04/14 10:54:18;;;;;;;8.37;4.37;;;16.70;99.90;;;;;;5020999;28;20464;-76
2023/04/14 10:57:09;;;;;;;9.40;5.47;;;17.00;99.90;;;;;;5020152;28;20841;-76
2023/04/14 10:59:39;;;;;;;10.60;6.63;;;16.80;99.90;;;;;;5023973;28;20426;-76
2023/04/14 11:02:22;;;;;;;11.87;5.80;;;16.80;99.90;;;;;;5017996;28;20455;-75
2023/04/14 11:04:58;;;;;;;12.83;5.27;;;16.90;99.90;;;;;;5018036;28;20484;-76
2023/04/14 11:07:25;;;;;;;10.07;4.93;;;17.40;99.90;;;;;;5019435;28;20451;-75
2023/04/14 11:09:51;;;;;;;10.87;5.30;;;18.00;99.90;;;;;;5020023;28;20476;-76
2023/04/14 11:12:26;;;;;;;11.90;5.30;;;18.00;99.90;;;;;;5022669;28;20447;-76
2023/04/14 11:14:56;;;;;;;10.80;5.60;;;17.80;99.90;;;;;;5018933;28;20846;-77
2023/04/14 11:17:29;;;;;;;8.80;4.40;;;17.40;99.90;;;;;;5021655;28;20940;-75
2023/04/14 11:19:57;;;;;;;7.10;4.20;;;16.90;99.90;;;;;;5021043;28;20460;-77
2023/04/14 11:22:48;;;;;;;8.35;3.78;;;16.80;99.90;;;;;;5022692;28;20453;-75
2023/04/14 11:25:16;;;;;;;15.23;4.27;;;16.90;99.90;;;;;;5009173;28;20258;-75
2023/04/14 11:27:44;;;;;;;7.67;4.03;;;17.00;99.90;;;;;;5024064;28;20484;-76
2023/04/14 11:30:14;;;;;;;10.07;4.40;;;17.60;99.90;;;;;;5022668;28;20791;-75
2023/04/14 11:32:50;;;;;;;8.70;4.53;;;18.40;99.90;;;;;;5020273;28;20498;-75
2023/04/14 11:35:17;;;;;;;7.97;4.50;;;18.60;99.90;;;;;;5025760;28;20919;-76
2023/04/14 11:37:44;;;;;;;9.77;4.50;;;18.30;99.90;;;;;;5022774;28;21823;-75
2023/04/14 11:40:13;;;;;;;8.80;4.90;;;17.80;99.90;;;;;;5025045;28;21125;-76
2023/04/14 11:42:43;;;;;;;14.40;4.57;;;17.50;99.90;;;;;;5024662;28;20468;-75
2023/04/14 11:45:12;;;;;;;7.00;4.10;;;17.20;99.90;;;;;;5025701;28;20449;-75
2023/04/14 11:47:39;;;;;;;13.33;4.20;;;16.90;99.90;;;;;;5021508;28;20569;-75
2023/04/14 11:50:08;;;;;;;9.73;4.37;;;16.90;99.90;;;;;;5023451;28;21023;-76
2023/04/14 11:52:35;;;;;;;10.67;4.10;;;17.60;99.90;;;;;;5024545;28;20500;-75
2023/04/14 11:55:02;;;;;;;9.07;4.10;;;18.10;99.90;;;;;;5006499;28;20973;-75
2023/04/14 11:57:29;;;;;;;6.83;4.07;;;17.50;99.90;;;;;;5015073;28;20442;-75
2023/04/14 11:59:56;;;;;;;9.97;4.27;;;17.20;99.90;;;;;;5010373;28;20464;-76
2023/04/14 12:02:23;;;;;;;7.43;3.23;;;17.20;99.90;;;;;;5005421;28;20459;-76
2023/04/14 12:04:51;;;;;;;8.53;4.00;;;17.00;99.90;;;;;;5014657;28;20453;-76
2023/04/14 12:07:20;;;;;;;8.70;3.57;;;16.90;99.90;;;;;;5022541;28;21005;-76
2023/04/14 12:09:48;;;;;;;11.90;3.30;;;16.80;99.90;;;;;;5022522;28;20460;-77
2023/04/14 12:12:17;;;;;;;4.80;2.90;;;17.30;99.90;;;;;;5023799;28;20439;-76
2023/04/14 12:14:45;;;;;;;6.63;3.50;;;17.50;99.90;;;;;;5025347;28;20430;-77
2023/04/14 12:17:12;;;;;;;5.23;2.77;;;17.60;99.90;;;;;;5018748;28;20547;-77
2023/04/14 12:19:39;;;;;;;9.00;3.60;;;18.20;99.90;;;;;;5021686;28;20431;-77
2023/04/14 12:22:08;;;;;;;4.90;3.20;;;18.70;99.90;;;;;;5024019;28;20476;-76
2023/04/14 12:24:37;;;;;;;5.87;3.40;;;19.10;99.90;;;;;;5018280;28;20978;-76
2023/04/14 12:27:05;;;;;;;10.80;4.20;;;19.00;99.90;;;;;;5023803;28;20516;-76
2023/04/14 12:29:33;;;;;;;10.33;3.80;;;18.10;99.90;;;;;;5024097;28;20819;-76
2023/04/14 12:32:00;;;;;;;8.77;3.30;;;17.80;99.90;;;;;;5019864;28;21254;-77
2023/04/14 12:34:28;;;;;;;6.53;4.20;;;17.80;99.90;;;;;;5019708;28;20435;-76
2023/04/14 12:36:55;;;;;;;6.87;2.83;;;17.50;99.90;;;;;;5018094;28;20857;-76
2023/04/14 12:39:22;;;;;;;7.20;3.47;;;17.70;99.90;;;;;;5022094;28;20436;-77
2023/04/14 12:41:50;;;;;;;9.37;3.83;;;18.10;99.90;;;;;;5017325;28;20454;-77
2023/04/14 12:44:19;;;;;;;7.60;3.20;;;18.00;99.90;;;;;;5019005;28;20439;-77
2023/04/14 12:46:47;;;;;;;5.53;3.10;;;18.00;99.90;;;;;;5021899;28;20435;-76
2023/04/14 12:49:32;;;;;;;9.07;3.03;;;18.00;99.90;;;;;;5018009;28;20423;-76
2023/04/14 12:51:59;;;;;;;5.43;3.23;;;18.30;99.90;;;;;;5022605;28;20480;-77
2023/04/14 12:54:26;;;;;;;9.57;3.30;;;18.30;99.90;;;;;;5017177;28;20431;-76